Carmel-by-the-Sea, CA (93921)

4:49 AM PDT on September 28, 2016 (GMT -0700)
Downtown Carmel | | Change Station

Elev 230 ft 36.55 °N, 121.92 °W | Updated 8 seconds ago

Smoke
Smoke
52.3 °F
Feels Like 52.3 °F
N
0.0
Wind Variable Wind from South
Gusts 4.0 mph

Today
High -- | Low -- °F
--% Chance of Precip.
Yesterday
High -- | Low -- °F
Precip. -- in
Pressure 29.90 in
Visibility 10.0 miles
Clouds Scattered Clouds 200 ft
Dew Point Not available.
Humidity Not available.
Rainfall 0.00 in
Snow Depth Not available.
7:00 AM 6:54 PM
Waning Crescent, 6% visible
SPECI KMRY 281131Z AUTO 00000KT 10SM FU SCT002 11/10 A2990 RMK AO2 T01110100
Pressure 29.90 in
Visibility 10.0 miles
Clouds Scattered Clouds 200 ft
Dew Point Not available.
Humidity Not available.
Rainfall 0.00 in
Snow Depth Not available.
7:00 AM 6:54 PM
Waning Crescent, 6% visible
SPECI KMRY 281131Z AUTO 00000KT 10SM FU SCT002 11/10 A2990 RMK AO2 T01110100

10-Day Weather Forecast

Almanac

Astronomy

Sep. 28, 2016 Rise Set
Actual Time
Civil Twilight
Nautical Twilight
Astronomical Twilight
Moon
Length of Visible Light
Length of Day
Tomorrow will be .
, % of the Moon is Illuminated

Today's Extremes

State Highs State Lows

Community

WunderPhotos

Upload Photos

1,942,232 photos uploaded!

WunderBlog® & News

Nearby

Air Quality

  Air Quality AQ Index Pollutant
Not available.

Snow Depth

Station Depth Elevation

Earthquake Activity

City Distance Mag. Time & Date
Minimum magnitude displayed is 2.5.

Coastal Water Temperatures

Place Temperature

Stations

Nearby Weather Stations

Station Location Temp. Windchill Dew Point Humidity Wind Precip. Elev Updated Type
                   

Watches & Warnings

There are currently no watches in effect.